KBIS

Bismarck Municipal Airport

Bismarck, North Dakota, USA
METAR KBIS 181052Z 00000KT 10SM CLR 08/08 A3013 RMK AO2 SLP206 T00780078
Observed Flight Rules
Jun-18 @ 10:52 UTC (17 minutes ago) Visual Flight Rules
Visibility Clouds
10 miles
  • Clear skies
Temperatures Readings
Current 8°C / 46°F
Dewpoint 8°C / 46°F
Humidity 100%
Altimeter 30.13" Hg
Pressure 1020.6 hPa
Elevation 505
METAR KBIS 181052Z 00000KT 10SM CLR 08/08 A3013 RMK AO2 SLP206 T00780078
Observed Flight Rules
Jun-18 @ 10:52 UTC
(17 minutes ago)
VFR
Clouds
  • Clear skies
Temperature Dewpoint
8°C / 46°F 8°C / 46°F
Humidity Altimeter Pressure
100% 30.13" Hg 1020.6 hPa